createdAt,value
2018-04-06T00:00:15.639Z,0
2018-04-06T00:01:15.266Z,0
2018-04-06T00:02:15.779Z,0
2018-04-06T00:03:15.234Z,0
2018-04-06T00:04:15.465Z,0
2018-04-06T00:05:15.442Z,0
2018-04-06T00:06:15.421Z,0
2018-04-06T00:07:15.140Z,0
2018-04-06T00:08:15.117Z,0
2018-04-06T00:09:15.894Z,0
2018-04-06T00:10:15.070Z,0
2018-04-06T00:11:15.305Z,0
2018-04-06T00:12:15.019Z,0
2018-04-06T00:13:15.259Z,0
2018-04-06T00:14:14.978Z,0
2018-04-06T00:15:15.217Z,0
2018-04-06T00:16:15.472Z,0
2018-04-06T00:17:15.372Z,0
2018-04-06T00:18:14.880Z,0
2018-04-06T00:19:15.647Z,0
2018-04-06T00:20:15.104Z,0
2018-04-06T00:21:14.544Z,0
2018-04-06T00:22:15.329Z,0
2018-04-06T00:23:15.302Z,0
2018-04-06T00:24:14.479Z,0
2018-04-06T00:25:15.245Z,0
2018-04-06T00:26:15.502Z,0
2018-04-06T00:27:14.943Z,0
2018-04-06T00:28:14.925Z,0
2018-04-06T00:29:15.425Z,0
2018-04-06T00:30:14.601Z,0
2018-04-06T00:31:15.380Z,0
2018-04-06T00:32:14.825Z,0
2018-04-06T00:33:14.795Z,0
2018-04-06T00:34:14.554Z,0
2018-04-06T00:35:15.030Z,0
2018-04-06T00:36:14.726Z,0
2018-04-06T00:37:14.709Z,0
2018-04-06T00:38:14.698Z,0
2018-04-06T00:39:14.661Z,0
2018-04-06T00:40:14.370Z,0
2018-04-06T00:41:14.347Z,0
2018-04-06T00:42:14.602Z,0
2018-04-06T00:43:14.300Z,0
2018-04-06T00:44:14.281Z,0
2018-04-06T00:45:14.791Z,0
2018-04-06T00:46:14.510Z,0
2018-04-06T00:47:14.478Z,0
2018-04-06T00:48:14.191Z,0
2018-04-06T00:49:14.162Z,0
2018-04-06T00:50:14.666Z,0
2018-04-06T00:51:14.382Z,0
2018-04-06T00:52:13.831Z,0
2018-04-06T00:53:14.603Z,0
2018-04-06T00:54:14.577Z,0
2018-04-06T00:55:14.562Z,0
2018-04-06T00:56:14.004Z,0
2018-04-06T00:57:14.246Z,0
2018-04-06T00:58:13.953Z,0
2018-04-06T00:59:14.199Z,0
2018-04-06T01:00:14.173Z,0
2018-04-06T01:01:14.420Z,0
2018-04-06T01:02:14.134Z,0
2018-04-06T01:03:13.922Z,0
2018-04-06T01:04:13.819Z,0
2018-04-06T01:05:14.336Z,0
2018-04-06T01:06:13.773Z,0
2018-04-06T01:07:14.017Z,0
2018-04-06T01:08:14.255Z,0
2018-04-06T01:09:14.241Z,0
2018-04-06T01:10:13.941Z,0
2018-04-06T01:11:13.919Z,0
2018-04-06T01:12:13.365Z,0
2018-04-06T01:13:13.612Z,0
2018-04-06T01:14:13.850Z,0
2018-04-06T01:15:13.823Z,0
2018-04-06T01:16:13.808Z,0
2018-04-06T01:17:14.060Z,0
2018-04-06T01:18:13.767Z,0
2018-04-06T01:19:14.004Z,0
2018-04-06T01:20:13.453Z,0
2018-04-06T01:21:13.430Z,0
2018-04-06T01:22:13.672Z,0
2018-04-06T01:23:13.659Z,0
2018-04-06T01:24:13.889Z,0
2018-04-06T01:25:13.603Z,0
2018-04-06T01:26:13.313Z,0
2018-04-06T01:27:14.099Z,0
2018-04-06T01:28:13.796Z,0
2018-04-06T01:29:13.247Z,0
2018-04-06T01:30:13.491Z,0
2018-04-06T01:31:13.189Z,0
2018-04-06T01:32:13.171Z,0
2018-04-06T01:33:13.948Z,0
2018-04-06T01:34:13.398Z,0
2018-04-06T01:35:13.106Z,0
2018-04-06T01:36:13.342Z,0
2018-04-06T01:37:13.588Z,0
2018-04-06T01:38:13.302Z,0
2018-04-06T01:39:12.748Z,0
2018-04-06T01:40:13.514Z,0
2018-04-06T01:41:13.495Z,0
2018-04-06T01:42:13.468Z,0
2018-04-06T01:43:12.918Z,0
2018-04-06T01:44:12.893Z,0
2018-04-06T01:45:12.871Z,0
2018-04-06T01:46:12.585Z,0
2018-04-06T01:47:13.090Z,0
2018-04-06T01:48:13.333Z,0
2018-04-06T01:49:12.784Z,0
2018-04-06T01:50:13.295Z,0
2018-04-06T01:51:13.268Z,0
2018-04-06T01:52:12.442Z,0
2018-04-06T01:53:12.958Z,0
2018-04-06T01:54:13.192Z,0
2018-04-06T01:55:12.649Z,0
2018-04-06T01:56:12.619Z,0
2018-04-06T01:57:13.124Z,0
2018-04-06T01:58:12.836Z,0
2018-04-06T01:59:12.552Z,0
2018-04-06T02:00:12.524Z,0
2018-04-06T02:01:13.039Z,0
2018-04-06T02:02:12.479Z,0
2018-04-06T02:03:12.452Z,0
2018-04-06T02:04:12.977Z,0
2018-04-06T02:05:12.406Z,0
2018-04-06T02:06:12.387Z,0
2018-04-06T02:07:13.163Z,0
2018-04-06T02:08:12.882Z,0
2018-04-06T02:09:12.843Z,0
2018-04-06T02:10:12.838Z,0
2018-04-06T02:11:12.532Z,0
2018-04-06T02:12:12.517Z,0
2018-04-06T02:13:12.233Z,0
2018-04-06T02:14:12.995Z,0
2018-04-06T02:15:11.913Z,0
2018-04-06T02:16:12.153Z,0
2018-04-06T02:17:12.596Z,0
2018-04-06T02:18:12.376Z,0
2018-04-06T02:19:12.894Z,0
2018-04-06T02:20:12.325Z,0
2018-04-06T02:21:12.308Z,0
2018-04-06T02:22:12.021Z,0
2018-04-06T02:23:11.726Z,0
2018-04-06T02:24:11.968Z,0
2018-04-06T02:25:12.476Z,0
2018-04-06T02:26:11.913Z,0
2018-04-06T02:27:12.434Z,0
2018-04-06T02:28:12.147Z,0
2018-04-06T02:29:12.374Z,0
2018-04-06T02:30:11.835Z,0
2018-04-06T02:31:12.068Z,0
2018-04-06T02:32:12.052Z,0
2018-04-06T02:33:11.764Z,0
2018-04-06T02:34:11.741Z,0
2018-04-06T02:35:12.265Z,0
2018-04-06T02:36:11.968Z,0
2018-04-06T02:37:12.200Z,0
2018-04-06T02:38:12.171Z,0
2018-04-06T02:39:11.616Z,0
2018-04-06T02:40:11.598Z,0
2018-04-06T02:41:11.853Z,0
2018-04-06T02:42:11.812Z,0
2018-04-06T02:43:11.530Z,0
2018-04-06T02:44:11.769Z,0
2018-04-06T02:45:11.498Z,0
2018-04-06T02:46:11.464Z,0
2018-04-06T02:47:11.697Z,0
2018-04-06T02:48:11.671Z,0
2018-04-06T02:49:11.390Z,0
2018-04-06T02:50:11.095Z,0
2018-04-06T02:51:11.349Z,0
2018-04-06T02:52:11.055Z,0
2018-04-06T02:53:11.825Z,0
2018-04-06T02:54:11.535Z,0
2018-04-06T02:55:11.245Z,0
2018-04-06T02:56:10.953Z,0
2018-04-06T02:57:11.736Z,0
2018-04-06T02:58:11.699Z,0
2018-04-06T02:59:11.172Z,0
2018-04-06T03:00:10.859Z,0
2018-04-06T03:01:11.367Z,0
2018-04-06T03:02:11.387Z,0
2018-04-06T03:03:12.067Z,0
2018-04-06T03:04:11.029Z,0
2018-04-06T03:05:11.267Z,0
2018-04-06T03:06:11.515Z,0
2018-04-06T03:07:11.767Z,0
2018-04-06T03:08:10.666Z,0
2018-04-06T03:09:11.181Z,0
2018-04-06T03:10:11.686Z,0
2018-04-06T03:11:11.417Z,0
2018-04-06T03:12:11.375Z,0
2018-04-06T03:13:10.828Z,0
2018-04-06T03:14:10.795Z,0
2018-04-06T03:15:11.036Z,0
2018-04-06T03:16:10.745Z,0
2018-04-06T03:17:10.717Z,0
2018-04-06T03:18:10.975Z,0
2018-04-06T03:19:10.679Z,0
2018-04-06T03:20:10.658Z,0
2018-04-06T03:21:10.629Z,0
2018-04-06T03:22:10.599Z,0
2018-04-06T03:23:10.585Z,0
2018-04-06T03:24:10.836Z,0
2018-04-06T03:25:10.802Z,0
2018-04-06T03:26:11.316Z,0
2018-04-06T03:27:10.484Z,0
2018-04-06T03:28:10.732Z,0
2018-04-06T03:29:10.170Z,0
2018-04-06T03:30:10.722Z,0
2018-04-06T03:31:10.683Z,0
2018-04-06T03:32:10.968Z,0
2018-04-06T03:33:10.339Z,0
2018-04-06T03:34:10.319Z,0
2018-04-06T03:35:10.562Z,0
2018-04-06T03:36:10.540Z,0
2018-04-06T03:37:10.509Z,0
2018-04-06T03:38:10.218Z,0
2018-04-06T03:39:11.002Z,0
2018-04-06T03:40:10.712Z,0
2018-04-06T03:41:10.430Z,0
2018-04-06T03:42:10.399Z,0
2018-04-06T03:43:10.107Z,0
2018-04-06T03:44:10.627Z,0
2018-04-06T03:45:10.323Z,0
2018-04-06T03:46:10.296Z,0
2018-04-06T03:47:10.555Z,0
2018-04-06T03:48:09.990Z,0
2018-04-06T03:49:10.505Z,0
2018-04-06T03:50:09.940Z,0
2018-04-06T03:51:10.185Z,0
2018-04-06T03:52:10.431Z,0
2018-04-06T03:53:09.872Z,0
2018-04-06T03:54:10.108Z,0
2018-04-06T03:55:10.088Z,0
2018-04-06T03:56:10.581Z,0
2018-04-06T03:57:10.301Z,0
2018-04-06T03:58:10.550Z,0
2018-04-06T03:59:09.990Z,0
2018-04-06T04:00:09.964Z,0
2018-04-06T04:01:09.944Z,0
2018-04-06T04:02:09.643Z,0
2018-04-06T04:03:10.162Z,0
2018-04-06T04:04:09.871Z,0
2018-04-06T04:05:10.112Z,0
2018-04-06T04:06:09.818Z,0
2018-04-06T04:07:09.805Z,0
2018-04-06T04:08:09.773Z,0
2018-04-06T04:09:09.533Z,0
2018-04-06T04:10:09.725Z,0
2018-04-06T04:11:09.965Z,0
2018-04-06T04:12:09.412Z,0
2018-04-06T04:13:10.230Z,0
2018-04-06T04:14:09.367Z,0
2018-04-06T04:15:10.150Z,0
2018-04-06T04:16:09.583Z,0
2018-04-06T04:17:09.300Z,0
2018-04-06T04:18:09.797Z,0
2018-04-06T04:19:10.052Z,0
2018-04-06T04:20:09.491Z,0
2018-04-06T04:21:09.211Z,0
2018-04-06T04:22:09.183Z,0
2018-04-06T04:23:09.181Z,0
2018-04-06T04:24:09.130Z,0
2018-04-06T04:25:09.387Z,0
2018-04-06T04:26:09.355Z,0
2018-04-06T04:27:09.336Z,0
2018-04-06T04:28:09.028Z,0
2018-04-06T04:29:09.007Z,0
2018-04-06T04:30:08.986Z,0
2018-04-06T04:31:09.508Z,0
2018-04-06T04:32:08.938Z,0
2018-04-06T04:33:09.459Z,0
2018-04-06T04:34:08.889Z,0
2018-04-06T04:35:09.146Z,0
2018-04-06T04:36:09.689Z,0
2018-04-06T04:37:08.823Z,0
2018-04-06T04:38:09.335Z,0
2018-04-06T04:39:09.052Z,0
2018-04-06T04:40:08.477Z,0
2018-04-06T04:41:09.261Z,0
2018-04-06T04:42:08.429Z,0
2018-04-06T04:43:08.937Z,0
2018-04-06T04:44:09.180Z,0
2018-04-06T04:45:09.456Z,0
2018-04-06T04:46:09.125Z,0
2018-04-06T04:47:09.117Z,0
2018-04-06T04:48:08.288Z,0
2018-04-06T04:49:08.796Z,0
2018-04-06T04:50:08.767Z,0
2018-04-06T04:51:08.751Z,0
2018-04-06T04:52:08.733Z,0
2018-04-06T04:53:08.700Z,0
2018-04-06T04:54:08.410Z,5
2018-04-06T04:55:08.659Z,5
2018-04-06T04:56:08.889Z,5
2018-04-06T04:57:08.609Z,5
2018-04-06T04:58:08.583Z,5
2018-04-06T04:59:08.554Z,5
2018-04-06T05:00:08.277Z,5
2018-04-06T05:01:08.517Z,5
2018-04-06T05:02:08.488Z,5
2018-04-06T05:03:08.724Z,5
2018-04-06T05:04:08.429Z,10
2018-04-06T05:05:08.677Z,10
2018-04-06T05:06:08.391Z,10
2018-04-06T05:07:08.091Z,10
2018-04-06T05:08:08.606Z,10
2018-04-06T05:09:08.047Z,10
2018-04-06T05:10:08.556Z,10
2018-04-06T05:11:08.540Z,15
2018-04-06T05:12:07.977Z,15
2018-04-06T05:13:08.218Z,15
2018-04-06T05:14:08.465Z,15
2018-04-06T05:15:08.432Z,15
2018-04-06T05:16:07.885Z,15
2018-04-06T05:17:07.868Z,15
2018-04-06T05:18:08.086Z,20
2018-04-06T05:19:08.340Z,20
2018-04-06T05:20:08.576Z,20
2018-04-06T05:21:08.303Z,20
2018-04-06T05:22:08.283Z,20
2018-04-06T05:23:08.239Z,25
2018-04-06T05:24:07.953Z,25
2018-04-06T05:25:07.660Z,25
2018-04-06T05:26:08.181Z,25
2018-04-06T05:27:08.149Z,25
2018-04-06T05:28:08.126Z,25
2018-04-06T05:29:07.573Z,25
2018-04-06T05:30:07.809Z,30
2018-04-06T05:31:07.785Z,30
2018-04-06T05:32:08.294Z,30
2018-04-06T05:33:07.736Z,30
2018-04-06T05:34:07.984Z,30
2018-04-06T05:35:07.971Z,30
2018-04-06T05:36:07.396Z,30
2018-04-06T05:37:07.654Z,35
2018-04-06T05:38:07.351Z,35
2018-04-06T05:39:07.866Z,35
2018-04-06T05:40:07.576Z,35
2018-04-06T05:41:07.810Z,35
2018-04-06T05:42:06.989Z,35
2018-04-06T05:43:07.508Z,35
2018-04-06T05:44:07.475Z,40
2018-04-06T05:45:07.728Z,40
2018-04-06T05:46:07.423Z,40
2018-04-06T05:47:07.141Z,40
2018-04-06T05:48:07.116Z,40
2018-04-06T05:49:07.638Z,40
2018-04-06T05:50:07.324Z,40
2018-04-06T05:51:07.832Z,45
2018-04-06T05:52:07.560Z,45
2018-04-06T05:53:07.278Z,45
2018-04-06T05:54:07.239Z,45
2018-04-06T05:55:06.968Z,45
2018-04-06T05:56:06.933Z,45
2018-04-06T05:57:07.435Z,45
2018-04-06T05:58:07.408Z,45
2018-04-06T05:59:07.390Z,50
2018-04-06T06:00:07.650Z,50
2018-04-06T06:01:07.338Z,50
2018-04-06T06:02:07.329Z,50
2018-04-06T06:03:06.765Z,50
2018-04-06T06:04:07.544Z,50
2018-04-06T06:05:06.994Z,50
2018-04-06T06:06:07.231Z,50
2018-04-06T06:07:06.670Z,50
2018-04-06T06:08:06.921Z,55
2018-04-06T06:09:06.622Z,55
2018-04-06T06:10:06.868Z,55
2018-04-06T06:11:06.584Z,55
2018-04-06T06:12:07.095Z,55
2018-04-06T06:13:06.817Z,55
2018-04-06T06:14:07.030Z,55
2018-04-06T06:15:07.035Z,55
2018-04-06T06:16:06.728Z,60
2018-04-06T06:17:06.971Z,60
2018-04-06T06:18:06.934Z,60
2018-04-06T06:19:06.924Z,60
2018-04-06T06:20:06.362Z,60
2018-04-06T06:21:06.337Z,60
2018-04-06T06:22:06.327Z,60
2018-04-06T06:23:06.821Z,60
2018-04-06T06:24:06.800Z,60
2018-04-06T06:25:06.784Z,60
2018-04-06T06:26:06.489Z,65
2018-04-06T06:27:06.470Z,65
2018-04-06T06:28:06.972Z,65
2018-04-06T06:29:06.818Z,65
2018-04-06T06:30:06.412Z,65
2018-04-06T06:31:06.113Z,65
2018-04-06T06:32:06.351Z,65
2018-04-06T06:33:06.622Z,65
2018-04-06T06:34:06.304Z,65
2018-04-06T06:35:06.538Z,65
2018-04-06T06:36:06.275Z,65
2018-04-06T06:37:06.505Z,70
2018-04-06T06:38:06.494Z,70
2018-04-06T06:39:06.453Z,70
2018-04-06T06:40:05.905Z,70
2018-04-06T06:41:05.889Z,70
2018-04-06T06:42:06.128Z,70
2018-04-06T06:43:07.013Z,70
2018-04-06T06:44:06.616Z,70
2018-04-06T06:45:06.055Z,70
2018-04-06T06:46:05.766Z,70
2018-04-06T06:47:06.544Z,70
2018-04-06T06:48:06.005Z,75
2018-04-06T06:49:05.968Z,75
2018-04-06T06:50:05.962Z,75
2018-04-06T06:51:05.650Z,75
2018-04-06T06:52:05.635Z,75
2018-04-06T06:53:05.881Z,75
2018-04-06T06:54:05.581Z,75
2018-04-06T06:55:05.570Z,75
2018-04-06T06:56:05.813Z,75
2018-04-06T06:57:06.050Z,75
2018-04-06T06:58:06.032Z,80
2018-04-06T06:59:05.741Z,80
2018-04-06T07:00:05.987Z,80
2018-04-06T07:01:05.746Z,80
2018-04-06T07:02:06.005Z,80
2018-04-06T07:03:05.934Z,80
2018-04-06T07:04:05.912Z,80
2018-04-06T07:05:05.617Z,80
2018-04-06T07:06:05.584Z,80
2018-04-06T07:07:06.105Z,85
2018-04-06T07:08:06.081Z,85
2018-04-06T07:09:05.520Z,85
2018-04-06T07:10:05.233Z,85
2018-04-06T07:11:05.510Z,85
2018-04-06T07:12:05.457Z,85
2018-04-06T07:13:05.972Z,85
2018-04-06T07:14:05.541Z,85
2018-04-06T07:15:05.117Z,90
2018-04-06T07:16:05.682Z,90
2018-04-06T07:17:05.091Z,90
2018-04-06T07:18:05.593Z,90
2018-04-06T07:19:05.574Z,90
2018-04-06T07:20:05.283Z,90
2018-04-06T07:21:05.794Z,90
2018-04-06T07:22:04.968Z,90
2018-04-06T07:23:04.951Z,90
2018-04-06T07:24:05.734Z,90
2018-04-06T07:25:04.916Z,85
2018-04-06T07:26:05.176Z,90
2018-04-06T07:27:05.398Z,90
2018-04-06T07:28:04.850Z,90
2018-04-06T07:29:05.087Z,90
2018-04-06T07:30:04.799Z,90
2018-04-06T07:31:05.305Z,90
2018-04-06T07:32:05.023Z,90
2018-04-06T07:33:05.270Z,90
2018-04-06T07:34:04.975Z,95
2018-04-06T07:35:04.693Z,95
2018-04-06T07:36:05.196Z,95
2018-04-06T07:37:04.919Z,95
2018-04-06T07:38:05.163Z,95
2018-04-06T07:39:05.136Z,95
2018-04-06T07:40:04.848Z,95
2018-04-06T07:41:04.835Z,95
2018-04-06T07:42:04.556Z,100
2018-04-06T07:43:04.793Z,100
2018-04-06T07:44:04.770Z,105
2018-04-06T07:45:05.018Z,100
2018-04-06T07:46:04.462Z,100
2018-04-06T07:47:05.248Z,100
2018-04-06T07:48:04.955Z,100
2018-04-06T07:49:04.402Z,100
2018-04-06T07:50:04.641Z,105
2018-04-06T07:51:04.892Z,105
2018-04-06T07:52:04.384Z,105
2018-04-06T07:53:04.587Z,105
2018-04-06T07:54:04.562Z,105
2018-04-06T07:55:04.284Z,105
2018-04-06T07:56:05.055Z,105
2018-04-06T07:57:04.537Z,105
2018-04-06T07:58:04.749Z,110
2018-04-06T07:59:04.727Z,110
2018-04-06T08:00:04.444Z,110
2018-04-06T08:01:04.691Z,110
2018-04-06T08:02:04.417Z,115
2018-04-06T08:03:04.129Z,115
2018-04-06T08:04:04.901Z,120
2018-04-06T08:05:04.626Z,125
2018-04-06T08:06:04.601Z,120
2018-04-06T08:07:04.580Z,125
2018-04-06T08:08:04.314Z,125
2018-04-06T08:09:04.545Z,130
2018-04-06T08:10:04.517Z,125
2018-04-06T08:11:04.488Z,130
2018-04-06T08:12:04.199Z,130
2018-04-06T08:13:04.398Z,135
2018-04-06T08:14:04.713Z,135
2018-04-06T08:15:04.414Z,440
2018-04-06T08:16:04.656Z,1035
2018-04-06T08:17:04.381Z,1160
2018-04-06T08:18:04.555Z,1190
2018-04-06T08:19:04.082Z,1210
2018-04-06T08:20:04.312Z,1230
2018-04-06T08:21:04.042Z,1250
2018-04-06T08:22:04.289Z,1265
2018-04-06T08:23:04.013Z,1265
2018-04-06T08:24:03.989Z,1225
2018-04-06T08:25:03.749Z,1325
2018-04-06T08:26:03.976Z,1505
2018-04-06T08:27:03.972Z,1515
2018-04-06T08:28:04.461Z,1470
2018-04-06T08:29:03.659Z,1480
2018-04-06T08:30:03.646Z,1505
2018-04-06T08:31:03.635Z,1550
2018-04-06T08:32:04.148Z,1530
2018-04-06T08:33:04.141Z,1390
2018-04-06T08:34:03.870Z,1385
2018-04-06T08:35:03.912Z,1520
2018-04-06T08:36:03.586Z,1350
2018-04-06T08:37:03.571Z,1105
2018-04-06T08:38:04.090Z,930
2018-04-06T08:39:03.823Z,715
2018-04-06T08:40:03.817Z,655
2018-04-06T08:41:03.805Z,680
2018-04-06T08:42:03.799Z,790
2018-04-06T08:43:04.062Z,735
2018-04-06T08:44:03.776Z,660
2018-04-06T08:45:04.037Z,775
2018-04-06T08:46:03.756Z,1155
2018-04-06T08:47:04.029Z,1240
2018-04-06T08:48:03.788Z,1145
2018-04-06T08:49:03.738Z,835
2018-04-06T08:50:03.731Z,590
2018-04-06T08:51:03.720Z,890
2018-04-06T08:52:03.992Z,890
2018-04-06T08:53:03.718Z,835
2018-04-06T08:54:03.978Z,1010
2018-04-06T08:55:03.707Z,990
2018-04-06T08:56:03.424Z,1035
2018-04-06T08:57:03.460Z,1115
2018-04-06T08:58:03.949Z,850
2018-04-06T08:59:03.413Z,835
2018-04-06T09:00:03.402Z,1150
2018-04-06T09:01:03.925Z,970
2018-04-06T09:02:03.400Z,620
2018-04-06T09:03:03.643Z,630
2018-04-06T09:04:03.636Z,910
2018-04-06T09:05:03.646Z,810
2018-04-06T09:06:03.897Z,805
2018-04-06T09:07:03.895Z,710
2018-04-06T09:08:03.350Z,665
2018-04-06T09:09:03.647Z,845
2018-04-06T09:10:03.614Z,875
2018-04-06T09:11:03.655Z,970
2018-04-06T09:12:03.858Z,1175
2018-04-06T09:13:03.625Z,1145
2018-04-06T09:14:03.842Z,1080
2018-04-06T09:15:03.577Z,1260
2018-04-06T09:16:03.305Z,1045
2018-04-06T09:17:04.141Z,540
2018-04-06T09:18:03.563Z,605
2018-04-06T09:19:03.821Z,740
2018-04-06T09:20:03.551Z,640
2018-04-06T09:21:03.524Z,825
2018-04-06T09:22:03.536Z,945
2018-04-06T09:23:03.777Z,925
2018-04-06T09:24:03.502Z,605
2018-04-06T09:25:03.504Z,295
2018-04-06T09:26:03.760Z,460
2018-04-06T09:27:03.742Z,840
2018-04-06T09:28:03.757Z,795
2018-04-06T09:29:03.730Z,755
2018-04-06T09:30:03.195Z,770
2018-04-06T09:31:03.452Z,705
2018-04-06T09:32:03.980Z,605
2018-04-06T09:33:03.704Z,595
2018-04-06T09:34:03.701Z,755
2018-04-06T09:35:02.895Z,740
2018-04-06T09:36:03.415Z,810
2018-04-06T09:37:03.399Z,470
2018-04-06T09:38:03.652Z,390
2018-04-06T09:39:03.657Z,320
2018-04-06T09:40:03.909Z,470
2018-04-06T09:41:03.896Z,790
2018-04-06T09:42:03.367Z,710
2018-04-06T09:43:03.354Z,920
2018-04-06T09:44:03.608Z,1165
2018-04-06T09:45:03.604Z,825
2018-04-06T09:46:03.058Z,415
2018-04-06T09:47:03.583Z,520
2018-04-06T09:48:03.305Z,490
2018-04-06T09:49:03.568Z,695
2018-04-06T09:50:03.556Z,780
2018-04-06T09:51:03.013Z,730
2018-04-06T09:52:03.277Z,645
2018-04-06T09:53:03.268Z,985
2018-04-06T09:54:03.517Z,970
2018-04-06T09:55:03.257Z,685
2018-04-06T09:56:03.246Z,790
2018-04-06T09:57:03.497Z,975
2018-04-06T09:58:03.221Z,1230
2018-04-06T09:59:03.213Z,1305
2018-04-06T10:00:03.476Z,1025
2018-04-06T10:01:03.479Z,1235
2018-04-06T10:02:03.192Z,1280
2018-04-06T10:03:03.852Z,1045
2018-04-06T10:04:03.442Z,585
2018-04-06T10:05:02.896Z,610
2018-04-06T10:06:03.156Z,605
2018-04-06T10:07:03.411Z,570
2018-04-06T10:08:03.457Z,905
2018-04-06T10:09:03.445Z,1430
2018-04-06T10:10:03.689Z,1325
2018-04-06T10:11:03.471Z,800
2018-04-06T10:12:03.374Z,785
2018-04-06T10:13:03.372Z,845
2018-04-06T10:14:03.105Z,695
2018-04-06T10:15:03.629Z,870
2018-04-06T10:16:03.620Z,950
2018-04-06T10:17:03.349Z,715
2018-04-06T10:18:03.268Z,720
2018-04-06T10:19:03.594Z,1215
2018-04-06T10:20:03.593Z,1480
2018-04-06T10:21:03.592Z,1500
2018-04-06T10:22:03.419Z,1350
2018-04-06T10:23:03.561Z,1290
2018-04-06T10:24:03.293Z,1070
2018-04-06T10:25:02.758Z,735
2018-04-06T10:26:03.552Z,655
2018-04-06T10:27:03.281Z,1020
2018-04-06T10:28:03.671Z,1430
2018-04-06T10:29:03.007Z,1575
2018-04-06T10:30:03.266Z,1140
2018-04-06T10:31:03.244Z,1015
2018-04-06T10:32:03.239Z,720
2018-04-06T10:33:03.239Z,790
2018-04-06T10:34:02.704Z,1150
2018-04-06T10:35:03.535Z,1250
2018-04-06T10:36:02.963Z,1400
2018-04-06T10:37:03.213Z,1415
2018-04-06T10:38:02.690Z,1375
2018-04-06T10:39:03.201Z,1275
2018-04-06T10:40:03.485Z,1535
2018-04-06T10:41:03.187Z,1155
2018-04-06T10:42:02.659Z,1030
2018-04-06T10:43:03.188Z,1180
2018-04-06T10:44:03.460Z,1330
2018-04-06T10:45:02.909Z,1455
2018-04-06T10:46:02.649Z,1250
2018-04-06T10:47:02.903Z,1090
2018-04-06T10:48:02.904Z,1015
2018-04-06T10:49:03.431Z,1390
2018-04-06T10:50:02.618Z,1290
2018-04-06T10:51:03.149Z,1065
2018-04-06T10:52:02.618Z,845
2018-04-06T10:53:02.618Z,760
2018-04-06T10:54:03.136Z,860
2018-04-06T10:55:03.414Z,1050
2018-04-06T10:56:02.866Z,1145
2018-04-06T10:57:02.856Z,1390
2018-04-06T10:58:03.385Z,1495
2018-04-06T10:59:02.849Z,1295
2018-04-06T11:00:03.378Z,1340
2018-04-06T11:01:03.371Z,1300
2018-04-06T11:02:02.831Z,1240
2018-04-06T11:03:02.571Z,1435
2018-04-06T11:04:02.829Z,1520
2018-04-06T11:05:03.081Z,1660
2018-04-06T11:06:02.824Z,1660
2018-04-06T11:07:03.348Z,1685
2018-04-06T11:08:02.546Z,1785
2018-04-06T11:09:03.347Z,1795
2018-04-06T11:10:02.820Z,1815
2018-04-06T11:11:02.808Z,1805
2018-04-06T11:12:02.803Z,1775
2018-04-06T11:13:03.069Z,1760
2018-04-06T11:14:02.804Z,1780
2018-04-06T11:15:02.560Z,1820
2018-04-06T11:16:02.803Z,1845
2018-04-06T11:17:02.800Z,1810
2018-04-06T11:18:02.803Z,1755
2018-04-06T11:19:03.058Z,1720
2018-04-06T11:20:02.798Z,1725
2018-04-06T11:21:03.062Z,1765
2018-04-06T11:22:02.537Z,1780
2018-04-06T11:23:03.241Z,1780
2018-04-06T11:24:03.074Z,1790
2018-04-06T11:25:02.538Z,1790
2018-04-06T11:26:03.333Z,1795
2018-04-06T11:27:03.072Z,1790
2018-04-06T11:28:03.093Z,1755
2018-04-06T11:29:02.814Z,1750
2018-04-06T11:30:02.809Z,1725
2018-04-06T11:31:03.355Z,1730
2018-04-06T11:32:03.382Z,1735
2018-04-06T11:33:03.349Z,1800
2018-04-06T11:34:03.083Z,1825
2018-04-06T11:35:02.821Z,1780
2018-04-06T11:36:02.574Z,1700
2018-04-06T11:37:02.565Z,1575
2018-04-06T11:38:02.882Z,1740
2018-04-06T11:39:02.835Z,1825
2018-04-06T11:40:03.110Z,1830
2018-04-06T11:41:02.839Z,1795
2018-04-06T11:42:02.579Z,1810
2018-04-06T11:43:03.111Z,1865
2018-04-06T11:44:02.846Z,1915
2018-04-06T11:45:03.119Z,1915
2018-04-06T11:46:03.130Z,2010
2018-04-06T11:47:02.855Z,2070
2018-04-06T11:48:02.861Z,2080
2018-04-06T11:49:03.134Z,2105
2018-04-06T11:50:02.890Z,2085
2018-04-06T11:51:03.413Z,2080
2018-04-06T11:52:03.140Z,2030
2018-04-06T11:53:03.418Z,1990
2018-04-06T11:54:03.155Z,2010
2018-04-06T11:55:03.428Z,1860
2018-04-06T11:56:02.892Z,2070
2018-04-06T11:57:02.377Z,2085
2018-04-06T11:58:02.909Z,2075
2018-04-06T11:59:03.439Z,2070
2018-04-06T12:00:02.381Z,2150
2018-04-06T12:01:03.177Z,2200
2018-04-06T12:02:02.667Z,2195
2018-04-06T12:03:02.669Z,2155
2018-04-06T12:04:02.929Z,2125
2018-04-06T12:05:02.935Z,2095
2018-04-06T12:06:02.672Z,2095
2018-04-06T12:07:02.950Z,2110
2018-04-06T12:08:03.014Z,2125
2018-04-06T12:09:02.955Z,2115
2018-04-06T12:10:02.967Z,2105
2018-04-06T12:11:03.507Z,2105
2018-04-06T12:12:02.436Z,2100
2018-04-06T12:13:02.748Z,2105
2018-04-06T12:14:02.983Z,2070
2018-04-06T12:15:03.248Z,2075
2018-04-06T12:16:02.982Z,2135
2018-04-06T12:17:02.725Z,2190
2018-04-06T12:18:03.208Z,2205
2018-04-06T12:19:03.534Z,2130
2018-04-06T12:20:03.271Z,2030
2018-04-06T12:21:03.290Z,1935
2018-04-06T12:22:03.014Z,1920
2018-04-06T12:23:03.024Z,1980
2018-04-06T12:24:03.022Z,2025
2018-04-06T12:25:02.808Z,2055
2018-04-06T12:26:02.768Z,2020
2018-04-06T12:27:03.566Z,1960
2018-04-06T12:28:02.780Z,1950
2018-04-06T12:29:03.047Z,1955
2018-04-06T12:30:02.788Z,1940
2018-04-06T12:31:03.331Z,1945
2018-04-06T12:32:03.610Z,1945
2018-04-06T12:33:03.080Z,1960
2018-04-06T12:34:03.090Z,1950
2018-04-06T12:35:02.814Z,1920
2018-04-06T12:36:03.356Z,1925
2018-04-06T12:37:03.350Z,1955
2018-04-06T12:38:03.087Z,1980
2018-04-06T12:39:03.117Z,2030
2018-04-06T12:40:03.655Z,2025
2018-04-06T12:41:03.108Z,1945
2018-04-06T12:42:03.374Z,1875
2018-04-06T12:43:02.855Z,1815
2018-04-06T12:44:03.389Z,1810
2018-04-06T12:45:03.125Z,1860
2018-04-06T12:46:03.399Z,1925
2018-04-06T12:47:03.405Z,1965
2018-04-06T12:48:03.452Z,2000
2018-04-06T12:49:03.257Z,2000
2018-04-06T12:50:03.420Z,1980
2018-04-06T12:51:03.158Z,1930
2018-04-06T12:52:02.900Z,1915
2018-04-06T12:53:03.174Z,1910
2018-04-06T12:54:02.911Z,1840
2018-04-06T12:55:03.436Z,1860
2018-04-06T12:56:03.533Z,1930
2018-04-06T12:57:02.930Z,1910
2018-04-06T12:58:02.931Z,1990
2018-04-06T12:59:03.473Z,1950
2018-04-06T13:00:02.946Z,1945
2018-04-06T13:01:03.475Z,2015
2018-04-06T13:02:03.472Z,2065
2018-04-06T13:03:03.359Z,1995
2018-04-06T13:04:03.223Z,1900
2018-04-06T13:05:03.480Z,1830
2018-04-06T13:06:03.753Z,1815
2018-04-06T13:07:03.239Z,1700
2018-04-06T13:08:03.509Z,1600
2018-04-06T13:09:03.239Z,1555
2018-04-06T13:10:02.984Z,1510
2018-04-06T13:11:02.978Z,1490
2018-04-06T13:12:03.517Z,1480
2018-04-06T13:13:03.517Z,1465
2018-04-06T13:14:02.990Z,1430
2018-04-06T13:15:03.527Z,1420
2018-04-06T13:16:03.536Z,1440
2018-04-06T13:17:03.547Z,1505
2018-04-06T13:18:03.271Z,1635
2018-04-06T13:19:03.551Z,1765
2018-04-06T13:20:03.558Z,1880
2018-04-06T13:21:03.284Z,1955
2018-04-06T13:22:03.018Z,1930
2018-04-06T13:23:03.289Z,1860
2018-04-06T13:24:03.024Z,1800
2018-04-06T13:25:03.025Z,1800
2018-04-06T13:26:03.033Z,1795
2018-04-06T13:27:03.572Z,1780
2018-04-06T13:28:03.563Z,1730
2018-04-06T13:29:03.299Z,1630
2018-04-06T13:30:03.304Z,1535
2018-04-06T13:31:03.054Z,1475
2018-04-06T13:32:03.319Z,1535
2018-04-06T13:33:03.319Z,1520
2018-04-06T13:34:03.313Z,1505
2018-04-06T13:35:03.579Z,1545
2018-04-06T13:36:03.313Z,1570
2018-04-06T13:37:03.871Z,1570
2018-04-06T13:38:03.593Z,1575
2018-04-06T13:39:03.329Z,1590
2018-04-06T13:40:03.334Z,1605
2018-04-06T13:41:03.339Z,1595
2018-04-06T13:42:03.618Z,1595
2018-04-06T13:43:02.811Z,1595
2018-04-06T13:44:03.603Z,1535
2018-04-06T13:45:03.618Z,1510
2018-04-06T13:46:03.338Z,1510
2018-04-06T13:47:03.355Z,1535
2018-04-06T13:48:03.357Z,1595
2018-04-06T13:49:03.089Z,1630
2018-04-06T13:50:03.400Z,1660
2018-04-06T13:51:03.355Z,1650
2018-04-06T13:52:03.356Z,1700
2018-04-06T13:53:02.837Z,1710
2018-04-06T13:54:03.368Z,1700
2018-04-06T13:55:03.414Z,1680
2018-04-06T13:56:03.909Z,1690
2018-04-06T13:57:03.110Z,1720
2018-04-06T13:58:03.370Z,1715
2018-04-06T13:59:03.918Z,1725
2018-04-06T14:00:03.648Z,1710
2018-04-06T14:01:03.721Z,1715
2018-04-06T14:02:03.396Z,1700
2018-04-06T14:03:03.668Z,1685